createdAt,value
2023-03-17T00:01:18.832Z,22.05
2023-03-17T00:04:47.700Z,21.50
2023-03-17T00:08:21.026Z,20.38
2023-03-17T00:11:49.307Z,19.85
2023-03-17T00:15:19.088Z,20.38
2023-03-17T00:18:47.700Z,20.63
2023-03-17T00:22:20.064Z,25.08
2023-03-17T00:25:48.619Z,24.63
2023-03-17T00:29:17.810Z,21.70
2023-03-17T00:32:47.629Z,20.63
2023-03-17T00:36:18.400Z,21.55
2023-03-17T00:39:46.891Z,19.50
2023-03-17T00:43:15.157Z,20.13
2023-03-17T00:46:43.584Z,19.55
2023-03-17T00:50:16.814Z,21.02
2023-03-17T00:53:45.931Z,20.98
2023-03-17T00:57:14.873Z,18.85
2023-03-17T01:00:43.194Z,17.25
2023-03-17T01:04:14.449Z,17.17
2023-03-17T01:07:42.686Z,14.98
2023-03-17T01:14:44.492Z,17.00
2023-03-17T01:18:16.218Z,16.17
2023-03-17T01:21:45.976Z,16.40
2023-03-17T01:25:13.850Z,15.30
2023-03-17T01:28:42.520Z,16.48
2023-03-17T01:32:10.789Z,17.05
2023-03-17T01:35:39.414Z,16.27
2023-03-17T01:39:08.952Z,15.68
2023-03-17T01:42:38.336Z,17.20
2023-03-17T01:46:21.946Z,18.42
2023-03-17T01:49:54.263Z,20.50
2023-03-17T01:53:25.606Z,20.63
2023-03-17T01:56:55.427Z,21.33
2023-03-17T02:00:26.682Z,24.83
2023-03-17T02:03:56.466Z,26.13
2023-03-17T02:07:24.883Z,22.58
2023-03-17T02:10:56.475Z,25.35
2023-03-17T02:14:25.646Z,24.88
2023-03-17T02:17:54.365Z,24.02
2023-03-17T02:21:43.966Z,24.00
2023-03-17T02:25:20.525Z,23.38
2023-03-17T02:28:49.801Z,24.27
2023-03-17T02:32:19.967Z,24.95
2023-03-17T02:35:49.026Z,24.27
2023-03-17T02:39:18.825Z,23.55
2023-03-17T02:42:48.259Z,26.83
2023-03-17T02:46:16.916Z,22.45
2023-03-17T02:49:46.006Z,24.02
2023-03-17T02:53:14.107Z,24.50
2023-03-17T02:56:43.576Z,22.38
2023-03-17T03:00:12.190Z,24.15
2023-03-17T03:03:40.411Z,21.73
2023-03-17T03:07:08.642Z,19.58
2023-03-17T03:10:37.848Z,20.80
2023-03-17T03:14:07.229Z,21.10
2023-03-17T03:17:35.575Z,22.58
2023-03-17T03:21:04.041Z,21.20
2023-03-17T03:24:32.535Z,21.88
2023-03-17T03:28:00.911Z,20.38
2023-03-17T03:37:52.117Z,18.30
2023-03-17T03:41:20.805Z,20.63
2023-03-17T03:44:48.688Z,20.42
2023-03-17T03:48:16.977Z,19.55
2023-03-17T03:55:14.277Z,18.15
2023-03-17T03:58:42.362Z,19.20
2023-03-17T04:02:10.874Z,19.58
2023-03-17T04:05:38.824Z,19.90
2023-03-17T04:09:07.763Z,20.55
2023-03-17T04:12:37.084Z,20.00
2023-03-17T04:16:06.051Z,18.00
2023-03-17T04:19:33.994Z,20.02
2023-03-17T04:23:02.360Z,18.10
2023-03-17T04:29:59.518Z,17.87
2023-03-17T04:33:27.620Z,17.27
2023-03-17T04:36:55.885Z,18.02
2023-03-17T04:40:23.760Z,20.02
2023-03-17T04:43:52.136Z,20.38
2023-03-17T04:50:49.762Z,18.17
2023-03-17T04:54:17.688Z,22.25
2023-03-17T04:57:46.027Z,23.70
2023-03-17T05:01:14.514Z,23.77
2023-03-17T05:04:45.201Z,23.80
2023-03-17T05:08:13.182Z,24.83
2023-03-17T05:11:41.832Z,25.38
2023-03-17T05:15:10.120Z,23.55
2023-03-17T05:18:38.543Z,22.08
2023-03-17T05:25:36.011Z,23.92
2023-03-17T05:29:04.171Z,23.98
2023-03-17T05:32:32.624Z,22.85
2023-03-17T05:39:30.355Z,21.52
2023-03-17T05:42:58.192Z,23.30
2023-03-17T05:46:26.624Z,24.63
2023-03-17T05:49:54.508Z,23.77
2023-03-17T05:53:22.592Z,22.10
2023-03-17T05:56:52.438Z,21.15
2023-03-17T06:00:21.739Z,21.52
2023-03-17T06:03:50.155Z,22.98
2023-03-17T06:07:18.491Z,22.42
2023-03-17T06:10:46.589Z,25.23
2023-03-17T06:14:16.205Z,21.20
2023-03-17T06:17:43.990Z,24.65
2023-03-17T06:21:12.930Z,27.52
2023-03-17T06:24:41.325Z,31.15
2023-03-17T06:28:10.301Z,26.88
2023-03-17T06:31:39.774Z,23.88
2023-03-17T06:35:08.454Z,23.48
2023-03-17T06:38:36.337Z,21.75
2023-03-17T06:42:06.245Z,21.70
2023-03-17T06:45:34.412Z,21.25
2023-03-17T06:49:04.663Z,21.17
2023-03-17T06:52:32.581Z,19.23
2023-03-17T06:56:00.897Z,20.00
2023-03-17T06:59:30.695Z,19.45
2023-03-17T07:02:58.707Z,19.27
2023-03-17T07:06:28.627Z,18.35
2023-03-17T07:09:56.614Z,20.05
2023-03-17T07:13:24.798Z,19.52
2023-03-17T07:20:21.076Z,21.90
2023-03-17T07:23:50.466Z,17.38
2023-03-17T07:27:47.410Z,17.15
2023-03-17T07:31:15.860Z,15.68
2023-03-17T07:34:43.568Z,14.68
2023-03-17T07:41:41.521Z,15.05
2023-03-17T07:45:11.377Z,16.52
2023-03-17T07:48:42.286Z,14.80
2023-03-17T07:52:13.998Z,15.82
2023-03-17T07:55:43.493Z,18.98
2023-03-17T07:59:12.169Z,19.33
2023-03-17T08:02:41.147Z,15.82
2023-03-17T08:06:10.109Z,16.05
2023-03-17T08:09:38.484Z,16.83
2023-03-17T08:13:09.176Z,16.42
2023-03-17T08:16:37.082Z,15.48
2023-03-17T08:20:06.076Z,15.02
2023-03-17T08:23:34.110Z,16.30
2023-03-17T08:27:02.761Z,17.45
2023-03-17T08:30:33.728Z,14.57
2023-03-17T08:34:03.235Z,17.42
2023-03-17T08:37:31.575Z,16.58
2023-03-17T08:41:01.204Z,16.13
2023-03-17T08:44:29.847Z,14.30
2023-03-17T08:47:59.502Z,14.15
2023-03-17T08:51:29.415Z,14.20
2023-03-17T08:54:57.821Z,15.10
2023-03-17T08:58:25.820Z,13.77
2023-03-17T09:01:54.759Z,14.10
2023-03-17T09:05:24.390Z,13.55
2023-03-17T09:08:55.529Z,13.70
2023-03-17T09:12:25.114Z,15.70
2023-03-17T09:15:53.307Z,12.48
2023-03-17T09:19:21.779Z,13.82
2023-03-17T09:22:51.342Z,14.85
2023-03-17T09:26:20.336Z,17.25
2023-03-17T09:29:48.423Z,16.30
2023-03-17T09:33:17.773Z,15.10
2023-03-17T09:36:45.634Z,17.20
2023-03-17T09:40:17.713Z,13.70
2023-03-17T09:43:57.747Z,14.73
2023-03-17T09:47:51.412Z,13.70
2023-03-17T09:51:23.511Z,14.30
2023-03-17T09:54:56.380Z,14.00
2023-03-17T09:58:29.835Z,11.93
2023-03-17T10:01:58.282Z,12.45
2023-03-17T10:05:28.563Z,11.95
2023-03-17T10:09:02.481Z,12.43
2023-03-17T10:12:45.941Z,11.05
2023-03-17T10:16:20.225Z,10.68
2023-03-17T10:19:57.259Z,9.43
2023-03-17T10:23:29.544Z,9.13
2023-03-17T10:27:04.709Z,10.25
2023-03-17T10:30:34.619Z,10.15
2023-03-17T10:34:13.236Z,9.23
2023-03-17T10:37:43.874Z,8.75
2023-03-17T10:41:21.289Z,9.73
2023-03-17T10:44:52.320Z,8.32
2023-03-17T10:48:21.313Z,8.27
2023-03-17T10:51:53.742Z,8.80
2023-03-17T10:55:28.304Z,7.70
2023-03-17T10:59:06.243Z,8.90
2023-03-17T11:02:44.533Z,8.65
2023-03-17T11:09:43.864Z,9.27
2023-03-17T11:13:22.024Z,9.45
2023-03-17T11:16:55.407Z,7.65
2023-03-17T11:20:37.364Z,6.97
2023-03-17T11:24:10.109Z,7.65
2023-03-17T11:27:48.386Z,7.40
2023-03-17T11:31:21.032Z,8.15
2023-03-17T11:35:09.684Z,7.07
2023-03-17T11:38:55.647Z,8.15
2023-03-17T11:42:42.094Z,7.60
2023-03-17T11:46:20.342Z,8.85
2023-03-17T11:49:56.230Z,8.90
2023-03-17T11:53:36.674Z,9.90
2023-03-17T11:57:11.314Z,9.95
2023-03-17T12:00:43.990Z,8.07
2023-03-17T12:04:21.812Z,8.77
2023-03-17T12:07:53.403Z,8.43
2023-03-17T12:11:25.922Z,9.10
2023-03-17T12:14:57.286Z,10.30
2023-03-17T12:18:31.368Z,11.20
2023-03-17T12:22:06.892Z,10.77
2023-03-17T12:25:42.629Z,10.20
2023-03-17T12:29:14.818Z,9.63
2023-03-17T12:32:49.409Z,10.10
2023-03-17T12:36:26.292Z,10.25
2023-03-17T12:40:01.114Z,10.32
2023-03-17T12:43:39.294Z,9.52
2023-03-17T12:47:22.933Z,11.45
2023-03-17T12:51:19.259Z,10.68
2023-03-17T12:54:51.730Z,9.32
2023-03-17T12:58:26.552Z,11.27
2023-03-17T13:01:58.886Z,10.00
2023-03-17T13:05:32.672Z,9.23
2023-03-17T13:09:16.955Z,9.43
2023-03-17T13:13:06.744Z,9.32
2023-03-17T13:17:04.707Z,9.57
2023-03-17T13:20:38.247Z,8.73
2023-03-17T13:24:37.431Z,8.90
2023-03-17T13:28:18.921Z,8.77
2023-03-17T13:32:12.199Z,9.32
2023-03-17T13:35:48.974Z,8.27
2023-03-17T13:43:23.758Z,9.80
2023-03-17T13:46:53.122Z,9.07
2023-03-17T13:50:25.025Z,9.18
2023-03-17T13:53:56.566Z,9.52
2023-03-17T13:57:30.131Z,10.45
2023-03-17T14:01:09.184Z,9.73
2023-03-17T14:04:45.508Z,9.25
2023-03-17T14:08:18.424Z,8.75
2023-03-17T14:11:53.679Z,9.27
2023-03-17T14:15:32.754Z,9.32
2023-03-17T14:19:12.101Z,9.35
2023-03-17T14:22:45.157Z,12.55
2023-03-17T14:26:16.718Z,13.02
2023-03-17T14:29:46.166Z,13.68
2023-03-17T14:33:21.606Z,10.05
2023-03-17T14:36:52.764Z,8.98
2023-03-17T14:40:26.951Z,9.20
2023-03-17T14:43:58.165Z,9.63
2023-03-17T14:47:32.976Z,10.27
2023-03-17T14:51:06.339Z,8.68
2023-03-17T14:54:35.917Z,8.85
2023-03-17T14:58:11.088Z,8.07
2023-03-17T15:01:47.997Z,10.05
2023-03-17T15:05:26.289Z,8.45
2023-03-17T15:08:55.151Z,9.85
2023-03-17T15:12:27.830Z,12.05
2023-03-17T15:16:03.883Z,11.05
2023-03-17T15:19:39.470Z,10.05
2023-03-17T15:23:23.757Z,9.07
2023-03-17T15:27:00.373Z,9.93
2023-03-17T15:30:37.399Z,10.30
2023-03-17T15:34:19.605Z,9.25
2023-03-17T15:37:47.842Z,9.00
2023-03-17T15:41:15.610Z,20.58
2023-03-17T15:44:43.756Z,12.25
2023-03-17T15:48:18.306Z,9.73
2023-03-17T15:51:48.424Z,8.10
2023-03-17T15:55:17.162Z,25.00
2023-03-17T15:58:45.235Z,32.88
2023-03-17T16:02:23.332Z,14.38
2023-03-17T16:05:52.816Z,11.55
2023-03-17T16:09:21.118Z,10.68
2023-03-17T16:12:49.377Z,26.77
2023-03-17T16:16:23.002Z,13.43
2023-03-17T16:19:52.727Z,9.65
2023-03-17T16:23:31.061Z,11.80
2023-03-17T16:26:58.786Z,12.38
2023-03-17T16:30:27.484Z,16.75
2023-03-17T16:33:56.137Z,11.73
2023-03-17T16:37:25.300Z,8.95
2023-03-17T16:40:55.817Z,9.90
2023-03-17T16:44:25.164Z,9.60
2023-03-17T16:47:53.600Z,14.90
2023-03-17T16:51:25.019Z,9.60
2023-03-17T16:54:54.516Z,10.95
2023-03-17T16:58:23.687Z,10.40
2023-03-17T17:01:55.003Z,17.08
2023-03-17T17:05:23.736Z,10.27
2023-03-17T17:08:52.761Z,8.95
2023-03-17T17:12:22.457Z,9.50
2023-03-17T17:15:50.870Z,12.27
2023-03-17T17:19:19.829Z,9.18
2023-03-17T17:22:47.527Z,11.35
2023-03-17T17:26:15.827Z,11.07
2023-03-17T17:33:13.489Z,10.55
2023-03-17T17:36:41.849Z,11.60
2023-03-17T17:40:14.038Z,17.20
2023-03-17T17:43:44.819Z,9.93
2023-03-17T17:47:16.871Z,15.48
2023-03-17T17:50:44.959Z,12.82
2023-03-17T17:54:13.210Z,15.25
2023-03-17T17:57:41.915Z,12.57
2023-03-17T18:01:17.486Z,13.27
2023-03-17T18:04:47.850Z,11.95
2023-03-17T18:08:16.117Z,17.08
2023-03-17T18:11:47.544Z,12.65
2023-03-17T18:15:15.620Z,11.95
2023-03-17T18:18:46.133Z,12.45
2023-03-17T18:22:17.049Z,12.55
2023-03-17T18:25:44.981Z,12.20
2023-03-17T18:29:13.658Z,11.95
2023-03-17T18:32:44.057Z,13.48
2023-03-17T18:36:13.699Z,12.95
2023-03-17T18:39:43.041Z,12.98
2023-03-17T18:43:11.377Z,12.77
2023-03-17T18:46:39.892Z,12.52
2023-03-17T18:50:09.151Z,11.43
2023-03-17T18:53:39.250Z,10.68
2023-03-17T18:57:09.466Z,11.23
2023-03-17T19:00:37.808Z,14.95
2023-03-17T19:04:06.765Z,11.95
2023-03-17T19:07:35.772Z,11.95
2023-03-17T19:11:07.616Z,12.05
2023-03-17T19:14:38.639Z,12.10
2023-03-17T19:18:09.016Z,12.98
2023-03-17T19:21:37.538Z,12.43
2023-03-17T19:25:06.790Z,11.38
2023-03-17T19:28:35.043Z,14.55
2023-03-17T19:32:06.534Z,12.98
2023-03-17T19:35:35.183Z,10.88
2023-03-17T19:39:03.634Z,12.02
2023-03-17T19:42:33.574Z,11.20
2023-03-17T19:46:02.331Z,12.48
2023-03-17T19:49:34.629Z,12.02
2023-03-17T19:53:02.992Z,10.00
2023-03-17T20:00:00.554Z,14.23
2023-03-17T20:03:28.716Z,11.55
2023-03-17T20:06:58.451Z,10.95
2023-03-17T20:10:28.751Z,11.35
2023-03-17T20:13:57.338Z,12.45
2023-03-17T20:17:25.746Z,10.82
2023-03-17T20:20:57.765Z,10.52
2023-03-17T20:24:29.337Z,10.60
2023-03-17T20:27:57.573Z,10.60
2023-03-17T20:34:54.445Z,10.52
2023-03-17T20:38:22.887Z,11.05
2023-03-17T20:41:55.413Z,12.25
2023-03-17T20:45:24.486Z,12.32
2023-03-17T20:48:58.689Z,11.52
2023-03-17T20:52:29.996Z,11.52
2023-03-17T20:56:00.356Z,12.38
2023-03-17T20:59:28.560Z,11.52
2023-03-17T21:02:57.269Z,11.93
2023-03-17T21:06:27.424Z,14.95
2023-03-17T21:09:56.689Z,10.40
2023-03-17T21:13:25.939Z,13.88
2023-03-17T21:16:55.205Z,11.68
2023-03-17T21:20:25.381Z,13.18
2023-03-17T21:23:53.149Z,10.55
2023-03-17T21:27:21.567Z,11.02
2023-03-17T21:30:50.993Z,13.00
2023-03-17T21:34:20.912Z,10.80
2023-03-17T21:37:49.291Z,11.52
2023-03-17T21:41:22.378Z,12.45
2023-03-17T21:44:52.173Z,11.88
2023-03-17T21:48:20.882Z,13.25
2023-03-17T21:51:48.931Z,11.85
2023-03-17T21:55:17.878Z,13.13
2023-03-17T21:58:45.873Z,12.35
2023-03-17T22:02:17.560Z,12.55
2023-03-17T22:05:47.218Z,13.27
2023-03-17T22:09:17.599Z,12.65
2023-03-17T22:12:46.907Z,12.57
2023-03-17T22:16:16.948Z,11.30
2023-03-17T22:19:44.979Z,11.82
2023-03-17T22:23:13.153Z,11.32
2023-03-17T22:26:41.086Z,12.85
2023-03-17T22:30:10.954Z,12.25
2023-03-17T22:33:40.466Z,11.95
2023-03-17T22:37:08.822Z,11.65
2023-03-17T22:44:04.710Z,11.27
2023-03-17T22:51:02.193Z,11.43
2023-03-17T22:54:32.977Z,11.10
2023-03-17T22:58:01.102Z,12.32
2023-03-17T23:01:28.958Z,12.95
2023-03-17T23:04:57.771Z,10.20
2023-03-17T23:08:27.969Z,10.30
2023-03-17T23:11:56.540Z,12.25
2023-03-17T23:15:24.705Z,12.00
2023-03-17T23:22:22.660Z,11.75
2023-03-17T23:25:52.046Z,11.27
2023-03-17T23:29:22.824Z,11.40
2023-03-17T23:32:50.786Z,11.98
2023-03-17T23:36:19.118Z,9.98
2023-03-17T23:39:48.527Z,10.68
2023-03-17T23:43:18.171Z,11.57
2023-03-17T23:46:46.470Z,10.15
2023-03-17T23:50:15.823Z,11.07
2023-03-17T23:53:44.016Z,11.68
2023-03-17T23:57:12.665Z,10.05
